Terminal Aerodrome Forecast
Issued by NWS Green Bay, WI

Home | Current Version | Previous Version | Text Only | Print | Product List | Glossary Off
Versions: 1 2 3 4 5 6 7 8 9 10 11 12 13 14 15 16 17 18 19 20 21 22 23 24 25 26 27

000
FTUS43 KGRB 230344 AAA
TAFGRB
TAF AMD
KGRB 230344Z 2304/2324 04011KT P6SM -SN SCT025 OVC050 WS020/14030KT
      TEMPO 2304/2306 2SM -FZDZSN BR OVC025
     FM230600 12008KT 3SM -FZRASNPL BR OVC026 WS020/15035KT
     FM231000 16006KT 3SM -RA BR OVC007 WS020/20035KT
     FM231600 23008G16KT 6SM -RA BR OVC010
     FM231700 26011G19KT P6SM BKN017=

USA.gov is the U.S. government's official web portal to all federal, state and local government web resources and services.